sensor_id;sensor_type;location;lat;lon;timestamp;P1;durP1;ratioP1;P2;durP2;ratioP2
56005;SDS011;41888;44.696;10.522;2022-11-14T00:00:08;28.38;;;17.98;;
56005;SDS011;41888;44.696;10.522;2022-11-14T00:02:36;32.95;;;18.95;;
56005;SDS011;41888;44.696;10.522;2022-11-14T00:05:03;32.72;;;19.55;;
56005;SDS011;41888;44.696;10.522;2022-11-14T00:07:32;30.83;;;18.58;;
56005;SDS011;41888;44.696;10.522;2022-11-14T00:09:58;29.42;;;18.02;;
56005;SDS011;41888;44.696;10.522;2022-11-14T00:12:25;32.60;;;19.95;;
56005;SDS011;41888;44.696;10.522;2022-11-14T00:14:51;30.25;;;18.50;;
56005;SDS011;41888;44.696;10.522;2022-11-14T00:17:19;29.50;;;18.67;;
56005;SDS011;41888;44.696;10.522;2022-11-14T00:19:46;30.00;;;17.92;;
56005;SDS011;41888;44.696;10.522;2022-11-14T00:22:12;31.83;;;20.95;;
56005;SDS011;41888;44.696;10.522;2022-11-14T00:24:38;39.00;;;21.50;;
56005;SDS011;41888;44.696;10.522;2022-11-14T00:27:04;36.00;;;21.40;;
56005;SDS011;41888;44.696;10.522;2022-11-14T00:29:30;38.53;;;22.02;;
56005;SDS011;41888;44.696;10.522;2022-11-14T00:31:56;38.72;;;23.48;;
56005;SDS011;41888;44.696;10.522;2022-11-14T00:34:23;40.80;;;24.05;;
56005;SDS011;41888;44.696;10.522;2022-11-14T00:36:49;40.70;;;24.73;;
56005;SDS011;41888;44.696;10.522;2022-11-14T00:39:15;46.47;;;26.85;;
56005;SDS011;41888;44.696;10.522;2022-11-14T00:41:41;46.40;;;26.33;;
56005;SDS011;41888;44.696;10.522;2022-11-14T00:44:07;42.60;;;24.73;;
56005;SDS011;41888;44.696;10.522;2022-11-14T00:46:35;44.38;;;26.77;;
56005;SDS011;41888;44.696;10.522;2022-11-14T00:49:02;43.17;;;25.33;;
56005;SDS011;41888;44.696;10.522;2022-11-14T00:51:29;45.67;;;25.30;;
56005;SDS011;41888;44.696;10.522;2022-11-14T00:53:55;39.50;;;22.88;;
56005;SDS011;41888;44.696;10.522;2022-11-14T00:56:21;37.75;;;22.75;;
56005;SDS011;41888;44.696;10.522;2022-11-14T00:58:47;35.97;;;21.15;;
56005;SDS011;41888;44.696;10.522;2022-11-14T01:01:13;33.58;;;20.15;;
56005;SDS011;41888;44.696;10.522;2022-11-14T01:03:40;37.72;;;21.40;;
56005;SDS011;41888;44.696;10.522;2022-11-14T01:06:06;32.60;;;19.60;;
56005;SDS011;41888;44.696;10.522;2022-11-14T01:08:35;34.90;;;19.58;;
56005;SDS011;41888;44.696;10.522;2022-11-14T01:11:07;32.97;;;19.38;;
56005;SDS011;41888;44.696;10.522;2022-11-14T01:13:35;32.85;;;20.77;;
56005;SDS011;41888;44.696;10.522;2022-11-14T01:16:02;35.22;;;20.35;;
56005;SDS011;41888;44.696;10.522;2022-11-14T01:18:28;36.67;;;21.38;;
56005;SDS011;41888;44.696;10.522;2022-11-14T01:20:55;42.80;;;23.52;;
56005;SDS011;41888;44.696;10.522;2022-11-14T01:23:21;43.72;;;23.27;;
56005;SDS011;41888;44.696;10.522;2022-11-14T01:25:47;39.92;;;23.02;;
56005;SDS011;41888;44.696;10.522;2022-11-14T01:28:14;43.72;;;25.15;;
56005;SDS011;41888;44.696;10.522;2022-11-14T01:30:42;41.83;;;23.33;;
56005;SDS011;41888;44.696;10.522;2022-11-14T01:33:09;39.33;;;22.95;;
56005;SDS011;41888;44.696;10.522;2022-11-14T01:35:36;45.38;;;25.63;;
56005;SDS011;41888;44.696;10.522;2022-11-14T01:38:03;38.80;;;22.60;;
56005;SDS011;41888;44.696;10.522;2022-11-14T01:40:30;45.03;;;25.00;;
56005;SDS011;41888;44.696;10.522;2022-11-14T01:45:52;42.30;;;22.65;;
56005;SDS011;41888;44.696;10.522;2022-11-14T01:48:21;39.83;;;23.08;;
56005;SDS011;41888;44.696;10.522;2022-11-14T01:50:53;44.05;;;23.33;;
56005;SDS011;41888;44.696;10.522;2022-11-14T01:53:47;40.40;;;23.20;;
56005;SDS011;41888;44.696;10.522;2022-11-14T01:56:16;44.88;;;24.13;;
56005;SDS011;41888;44.696;10.522;2022-11-14T01:58:50;49.17;;;24.88;;
56005;SDS011;41888;44.696;10.522;2022-11-14T02:01:20;39.85;;;22.63;;
56005;SDS011;41888;44.696;10.522;2022-11-14T02:03:47;43.35;;;24.25;;
56005;SDS011;41888;44.696;10.522;2022-11-14T02:06:17;44.03;;;24.23;;
56005;SDS011;41888;44.696;10.522;2022-11-14T02:08:45;45.95;;;23.60;;
56005;SDS011;41888;44.696;10.522;2022-11-14T02:11:12;38.60;;;24.25;;
56005;SDS011;41888;44.696;10.522;2022-11-14T02:13:38;49.33;;;24.88;;
56005;SDS011;41888;44.696;10.522;2022-11-14T02:16:05;44.10;;;25.20;;
56005;SDS011;41888;44.696;10.522;2022-11-14T02:18:31;44.72;;;25.00;;
56005;SDS011;41888;44.696;10.522;2022-11-14T02:20:58;47.88;;;25.27;;
56005;SDS011;41888;44.696;10.522;2022-11-14T02:23:25;46.25;;;24.35;;
56005;SDS011;41888;44.696;10.522;2022-11-14T02:25:52;48.55;;;24.70;;
56005;SDS011;41888;44.696;10.522;2022-11-14T02:28:19;45.42;;;24.92;;
56005;SDS011;41888;44.696;10.522;2022-11-14T02:30:46;55.40;;;27.88;;
56005;SDS011;41888;44.696;10.522;2022-11-14T02:33:12;54.95;;;27.15;;
56005;SDS011;41888;44.696;10.522;2022-11-14T02:35:40;55.30;;;27.35;;
56005;SDS011;41888;44.696;10.522;2022-11-14T02:38:06;55.10;;;27.35;;
56005;SDS011;41888;44.696;10.522;2022-11-14T02:40:32;54.50;;;26.20;;
56005;SDS011;41888;44.696;10.522;2022-11-14T02:42:58;52.80;;;26.98;;
56005;SDS011;41888;44.696;10.522;2022-11-14T02:45:25;53.00;;;27.52;;
56005;SDS011;41888;44.696;10.522;2022-11-14T02:47:51;49.70;;;25.35;;
56005;SDS011;41888;44.696;10.522;2022-11-14T02:50:17;49.47;;;28.58;;
56005;SDS011;41888;44.696;10.522;2022-11-14T02:52:44;50.78;;;27.15;;
56005;SDS011;41888;44.696;10.522;2022-11-14T02:55:10;49.30;;;26.02;;
56005;SDS011;41888;44.696;10.522;2022-11-14T02:57:36;48.63;;;25.02;;
56005;SDS011;41888;44.696;10.522;2022-11-14T03:00:03;50.95;;;24.23;;
56005;SDS011;41888;44.696;10.522;2022-11-14T03:02:30;52.55;;;26.95;;
56005;SDS011;41888;44.696;10.522;2022-11-14T03:04:56;45.85;;;25.45;;
56005;SDS011;41888;44.696;10.522;2022-11-14T03:07:22;47.35;;;26.65;;
56005;SDS011;41888;44.696;10.522;2022-11-14T03:09:48;45.95;;;26.83;;
56005;SDS011;41888;44.696;10.522;2022-11-14T03:12:17;47.17;;;24.23;;
56005;SDS011;41888;44.696;10.522;2022-11-14T03:14:44;52.30;;;27.45;;
56005;SDS011;41888;44.696;10.522;2022-11-14T03:17:10;50.58;;;26.63;;
56005;SDS011;41888;44.696;10.522;2022-11-14T03:19:36;53.97;;;27.17;;
56005;SDS011;41888;44.696;10.522;2022-11-14T03:22:03;52.13;;;27.02;;
56005;SDS011;41888;44.696;10.522;2022-11-14T03:24:29;51.78;;;26.75;;
56005;SDS011;41888;44.696;10.522;2022-11-14T03:26:56;48.33;;;26.90;;
56005;SDS011;41888;44.696;10.522;2022-11-14T03:29:22;55.45;;;28.00;;
56005;SDS011;41888;44.696;10.522;2022-11-14T03:31:48;58.08;;;28.70;;
56005;SDS011;41888;44.696;10.522;2022-11-14T03:34:14;53.90;;;28.35;;
56005;SDS011;41888;44.696;10.522;2022-11-14T03:36:40;57.47;;;29.35;;
56005;SDS011;41888;44.696;10.522;2022-11-14T03:39:06;56.67;;;27.25;;
56005;SDS011;41888;44.696;10.522;2022-11-14T03:41:33;59.95;;;30.48;;
56005;SDS011;41888;44.696;10.522;2022-11-14T03:43:59;60.03;;;30.63;;
56005;SDS011;41888;44.696;10.522;2022-11-14T03:46:25;58.83;;;29.67;;
56005;SDS011;41888;44.696;10.522;2022-11-14T03:48:51;58.50;;;30.08;;
56005;SDS011;41888;44.696;10.522;2022-11-14T03:51:17;62.72;;;31.70;;
56005;SDS011;41888;44.696;10.522;2022-11-14T03:53:43;66.25;;;31.17;;
56005;SDS011;41888;44.696;10.522;2022-11-14T03:56:10;61.17;;;31.50;;
56005;SDS011;41888;44.696;10.522;2022-11-14T03:58:36;66.45;;;32.47;;
56005;SDS011;41888;44.696;10.522;2022-11-14T04:01:02;63.83;;;30.63;;
56005;SDS011;41888;44.696;10.522;2022-11-14T04:03:28;64.00;;;31.20;;
56005;SDS011;41888;44.696;10.522;2022-11-14T04:05:54;71.18;;;32.35;;
56005;SDS011;41888;44.696;10.522;2022-11-14T04:08:20;65.57;;;32.55;;
56005;SDS011;41888;44.696;10.522;2022-11-14T04:10:47;64.85;;;31.35;;
56005;SDS011;41888;44.696;10.522;2022-11-14T04:13:13;71.75;;;34.95;;
56005;SDS011;41888;44.696;10.522;2022-11-14T04:15:40;71.45;;;33.85;;
56005;SDS011;41888;44.696;10.522;2022-11-14T04:18:06;72.32;;;34.67;;
56005;SDS011;41888;44.696;10.522;2022-11-14T04:20:32;74.72;;;34.50;;
56005;SDS011;41888;44.696;10.522;2022-11-14T04:22:58;73.18;;;34.38;;
56005;SDS011;41888;44.696;10.522;2022-11-14T04:25:24;65.10;;;32.13;;
56005;SDS011;41888;44.696;10.522;2022-11-14T04:27:51;69.47;;;32.60;;
56005;SDS011;41888;44.696;10.522;2022-11-14T04:30:17;68.72;;;33.17;;
56005;SDS011;41888;44.696;10.522;2022-11-14T04:32:44;67.00;;;33.47;;
56005;SDS011;41888;44.696;10.522;2022-11-14T04:35:12;64.35;;;31.70;;
56005;SDS011;41888;44.696;10.522;2022-11-14T04:37:38;62.22;;;30.40;;
56005;SDS011;41888;44.696;10.522;2022-11-14T04:40:05;63.58;;;31.92;;
56005;SDS011;41888;44.696;10.522;2022-11-14T04:42:31;68.78;;;33.50;;
56005;SDS011;41888;44.696;10.522;2022-11-14T04:44:58;72.25;;;33.38;;
56005;SDS011;41888;44.696;10.522;2022-11-14T04:47:24;67.47;;;32.60;;
56005;SDS011;41888;44.696;10.522;2022-11-14T04:49:50;76.00;;;32.88;;
56005;SDS011;41888;44.696;10.522;2022-11-14T04:52:16;71.90;;;33.40;;
56005;SDS011;41888;44.696;10.522;2022-11-14T04:54:42;70.07;;;32.08;;
56005;SDS011;41888;44.696;10.522;2022-11-14T04:57:08;66.53;;;31.60;;
56005;SDS011;41888;44.696;10.522;2022-11-14T04:59:34;71.78;;;33.13;;
56005;SDS011;41888;44.696;10.522;2022-11-14T05:02:00;69.40;;;31.70;;
56005;SDS011;41888;44.696;10.522;2022-11-14T05:04:27;68.72;;;31.75;;
56005;SDS011;41888;44.696;10.522;2022-11-14T05:06:53;69.38;;;32.90;;
56005;SDS011;41888;44.696;10.522;2022-11-14T05:09:19;63.83;;;30.33;;
56005;SDS011;41888;44.696;10.522;2022-11-14T05:11:45;64.40;;;32.00;;
56005;SDS011;41888;44.696;10.522;2022-11-14T05:14:11;71.97;;;33.08;;
56005;SDS011;41888;44.696;10.522;2022-11-14T05:16:37;74.40;;;34.38;;
56005;SDS011;41888;44.696;10.522;2022-11-14T05:19:04;69.00;;;33.70;;
56005;SDS011;41888;44.696;10.522;2022-11-14T05:21:30;64.28;;;30.27;;
56005;SDS011;41888;44.696;10.522;2022-11-14T05:23:56;69.47;;;32.80;;
56005;SDS011;41888;44.696;10.522;2022-11-14T05:26:22;63.30;;;30.55;;
56005;SDS011;41888;44.696;10.522;2022-11-14T05:28:48;70.80;;;32.95;;
56005;SDS011;41888;44.696;10.522;2022-11-14T05:31:14;63.20;;;30.75;;
56005;SDS011;41888;44.696;10.522;2022-11-14T05:33:42;66.30;;;31.27;;
56005;SDS011;41888;44.696;10.522;2022-11-14T05:36:10;66.78;;;32.47;;
56005;SDS011;41888;44.696;10.522;2022-11-14T05:38:37;71.07;;;32.08;;
56005;SDS011;41888;44.696;10.522;2022-11-14T05:41:05;67.45;;;31.95;;
56005;SDS011;41888;44.696;10.522;2022-11-14T05:43:35;59.97;;;30.40;;
56005;SDS011;41888;44.696;10.522;2022-11-14T05:46:02;69.30;;;33.42;;
56005;SDS011;41888;44.696;10.522;2022-11-14T05:48:30;66.45;;;32.50;;
56005;SDS011;41888;44.696;10.522;2022-11-14T05:50:58;62.58;;;29.42;;
56005;SDS011;41888;44.696;10.522;2022-11-14T05:53:26;72.78;;;33.28;;
56005;SDS011;41888;44.696;10.522;2022-11-14T05:55:53;71.25;;;33.63;;
56005;SDS011;41888;44.696;10.522;2022-11-14T05:58:19;66.10;;;31.40;;
56005;SDS011;41888;44.696;10.522;2022-11-14T06:00:46;66.00;;;32.33;;
56005;SDS011;41888;44.696;10.522;2022-11-14T06:03:13;69.00;;;32.20;;
56005;SDS011;41888;44.696;10.522;2022-11-14T06:05:39;72.30;;;32.45;;
56005;SDS011;41888;44.696;10.522;2022-11-14T06:08:06;67.07;;;31.98;;
56005;SDS011;41888;44.696;10.522;2022-11-14T06:10:33;70.03;;;33.70;;
56005;SDS011;41888;44.696;10.522;2022-11-14T06:13:00;71.60;;;34.42;;
56005;SDS011;41888;44.696;10.522;2022-11-14T06:15:26;77.78;;;36.22;;
56005;SDS011;41888;44.696;10.522;2022-11-14T06:17:53;77.47;;;34.78;;
56005;SDS011;41888;44.696;10.522;2022-11-14T06:20:19;74.97;;;35.80;;
56005;SDS011;41888;44.696;10.522;2022-11-14T06:22:45;81.32;;;38.40;;
56005;SDS011;41888;44.696;10.522;2022-11-14T06:25:12;74.40;;;36.25;;
56005;SDS011;41888;44.696;10.522;2022-11-14T06:27:38;75.25;;;34.75;;
56005;SDS011;41888;44.696;10.522;2022-11-14T06:30:04;82.20;;;36.53;;
56005;SDS011;41888;44.696;10.522;2022-11-14T06:32:31;74.47;;;35.13;;
56005;SDS011;41888;44.696;10.522;2022-11-14T06:34:57;76.63;;;35.53;;
56005;SDS011;41888;44.696;10.522;2022-11-14T06:37:23;79.05;;;33.83;;
56005;SDS011;41888;44.696;10.522;2022-11-14T06:39:49;79.20;;;34.72;;
56005;SDS011;41888;44.696;10.522;2022-11-14T06:42:15;82.68;;;36.65;;
56005;SDS011;41888;44.696;10.522;2022-11-14T06:44:41;75.05;;;34.85;;
56005;SDS011;41888;44.696;10.522;2022-11-14T06:47:07;73.95;;;31.67;;
56005;SDS011;41888;44.696;10.522;2022-11-14T06:49:34;73.80;;;34.42;;
56005;SDS011;41888;44.696;10.522;2022-11-14T06:52:00;72.72;;;32.50;;
56005;SDS011;41888;44.696;10.522;2022-11-14T06:54:26;68.22;;;31.45;;
56005;SDS011;41888;44.696;10.522;2022-11-14T06:56:52;68.28;;;31.75;;
56005;SDS011;41888;44.696;10.522;2022-11-14T06:59:18;67.45;;;29.23;;
56005;SDS011;41888;44.696;10.522;2022-11-14T07:01:44;58.88;;;29.70;;
56005;SDS011;41888;44.696;10.522;2022-11-14T07:04:10;60.15;;;29.70;;
56005;SDS011;41888;44.696;10.522;2022-11-14T07:06:36;57.72;;;28.88;;
56005;SDS011;41888;44.696;10.522;2022-11-14T07:09:03;53.55;;;26.50;;
56005;SDS011;41888;44.696;10.522;2022-11-14T07:11:29;56.35;;;26.60;;
56005;SDS011;41888;44.696;10.522;2022-11-14T07:13:56;61.63;;;27.10;;
56005;SDS011;41888;44.696;10.522;2022-11-14T07:16:25;57.08;;;28.20;;
56005;SDS011;41888;44.696;10.522;2022-11-14T07:18:56;53.42;;;26.98;;
56005;SDS011;41888;44.696;10.522;2022-11-14T07:21:23;54.08;;;26.58;;
56005;SDS011;41888;44.696;10.522;2022-11-14T07:23:50;51.58;;;25.17;;
56005;SDS011;41888;44.696;10.522;2022-11-14T07:26:17;57.33;;;27.20;;
56005;SDS011;41888;44.696;10.522;2022-11-14T07:28:43;53.00;;;26.30;;
56005;SDS011;41888;44.696;10.522;2022-11-14T07:31:11;52.78;;;28.25;;
56005;SDS011;41888;44.696;10.522;2022-11-14T07:33:39;54.00;;;25.83;;
56005;SDS011;41888;44.696;10.522;2022-11-14T07:36:07;51.83;;;24.88;;
56005;SDS011;41888;44.696;10.522;2022-11-14T07:38:35;47.90;;;25.05;;
56005;SDS011;41888;44.696;10.522;2022-11-14T07:41:02;47.08;;;23.95;;
56005;SDS011;41888;44.696;10.522;2022-11-14T07:43:30;46.80;;;24.00;;
56005;SDS011;41888;44.696;10.522;2022-11-14T07:46:00;46.25;;;25.60;;
56005;SDS011;41888;44.696;10.522;2022-11-14T07:48:29;45.55;;;23.48;;
56005;SDS011;41888;44.696;10.522;2022-11-14T07:51:03;50.28;;;24.38;;
56005;SDS011;41888;44.696;10.522;2022-11-14T07:53:31;49.00;;;26.60;;
56005;SDS011;41888;44.696;10.522;2022-11-14T07:56:01;45.05;;;24.38;;
56005;SDS011;41888;44.696;10.522;2022-11-14T07:58:29;49.47;;;26.02;;
56005;SDS011;41888;44.696;10.522;2022-11-14T08:00:59;43.80;;;23.50;;
56005;SDS011;41888;44.696;10.522;2022-11-14T08:03:26;43.45;;;24.50;;
56005;SDS011;41888;44.696;10.522;2022-11-14T08:05:58;45.50;;;24.08;;
56005;SDS011;41888;44.696;10.522;2022-11-14T08:08:26;48.53;;;25.75;;
56005;SDS011;41888;44.696;10.522;2022-11-14T08:10:54;48.13;;;26.48;;
56005;SDS011;41888;44.696;10.522;2022-11-14T08:13:22;51.00;;;26.15;;
56005;SDS011;41888;44.696;10.522;2022-11-14T08:15:48;50.75;;;26.58;;
56005;SDS011;41888;44.696;10.522;2022-11-14T08:18:14;47.80;;;24.80;;
56005;SDS011;41888;44.696;10.522;2022-11-14T08:20:41;49.28;;;25.67;;
56005;SDS011;41888;44.696;10.522;2022-11-14T08:23:08;45.03;;;24.35;;
56005;SDS011;41888;44.696;10.522;2022-11-14T08:25:35;45.47;;;23.63;;
56005;SDS011;41888;44.696;10.522;2022-11-14T08:28:01;49.00;;;25.85;;
56005;SDS011;41888;44.696;10.522;2022-11-14T08:30:27;49.58;;;24.70;;
56005;SDS011;41888;44.696;10.522;2022-11-14T08:32:54;43.95;;;22.02;;
56005;SDS011;41888;44.696;10.522;2022-11-14T08:35:20;42.92;;;22.65;;
56005;SDS011;41888;44.696;10.522;2022-11-14T08:37:47;46.08;;;23.35;;
56005;SDS011;41888;44.696;10.522;2022-11-14T08:40:13;43.33;;;22.48;;
56005;SDS011;41888;44.696;10.522;2022-11-14T08:42:39;41.15;;;22.35;;
56005;SDS011;41888;44.696;10.522;2022-11-14T08:45:05;49.83;;;23.20;;
56005;SDS011;41888;44.696;10.522;2022-11-14T08:47:32;49.45;;;21.88;;
56005;SDS011;41888;44.696;10.522;2022-11-14T08:49:58;42.38;;;23.50;;
56005;SDS011;41888;44.696;10.522;2022-11-14T08:52:25;39.72;;;20.27;;
56005;SDS011;41888;44.696;10.522;2022-11-14T08:54:51;38.45;;;20.58;;
56005;SDS011;41888;44.696;10.522;2022-11-14T08:57:17;40.25;;;22.88;;
56005;SDS011;41888;44.696;10.522;2022-11-14T08:59:43;38.40;;;21.55;;
56005;SDS011;41888;44.696;10.522;2022-11-14T09:02:10;43.28;;;24.33;;
56005;SDS011;41888;44.696;10.522;2022-11-14T09:04:37;43.25;;;24.25;;
56005;SDS011;41888;44.696;10.522;2022-11-14T09:07:04;47.20;;;26.35;;
56005;SDS011;41888;44.696;10.522;2022-11-14T09:09:30;45.80;;;24.35;;
56005;SDS011;41888;44.696;10.522;2022-11-14T09:11:56;50.95;;;25.98;;
56005;SDS011;41888;44.696;10.522;2022-11-14T09:14:23;51.13;;;25.75;;
56005;SDS011;41888;44.696;10.522;2022-11-14T09:16:49;52.58;;;26.13;;
56005;SDS011;41888;44.696;10.522;2022-11-14T09:19:15;48.45;;;25.08;;
56005;SDS011;41888;44.696;10.522;2022-11-14T09:21:41;59.53;;;29.13;;
56005;SDS011;41888;44.696;10.522;2022-11-14T09:24:08;56.70;;;27.83;;
56005;SDS011;41888;44.696;10.522;2022-11-14T09:26:34;56.05;;;28.83;;
56005;SDS011;41888;44.696;10.522;2022-11-14T09:29:00;47.58;;;23.45;;
56005;SDS011;41888;44.696;10.522;2022-11-14T09:31:27;50.25;;;24.77;;
56005;SDS011;41888;44.696;10.522;2022-11-14T09:33:53;55.38;;;26.85;;
56005;SDS011;41888;44.696;10.522;2022-11-14T09:36:20;52.13;;;27.73;;
56005;SDS011;41888;44.696;10.522;2022-11-14T09:38:47;55.75;;;27.63;;
56005;SDS011;41888;44.696;10.522;2022-11-14T09:46:44;60.47;;;31.92;;
56005;SDS011;41888;44.696;10.522;2022-11-14T09:54:55;55.90;;;28.90;;
56005;SDS011;41888;44.696;10.522;2022-11-14T09:57:25;55.63;;;30.25;;
56005;SDS011;41888;44.696;10.522;2022-11-14T09:59:52;59.53;;;28.48;;
56005;SDS011;41888;44.696;10.522;2022-11-14T10:02:30;54.00;;;29.25;;
56005;SDS011;41888;44.696;10.522;2022-11-14T10:11:05;51.53;;;27.60;;
56005;SDS011;41888;44.696;10.522;2022-11-14T10:25:19;48.55;;;27.52;;
56005;SDS011;41888;44.696;10.522;2022-11-14T10:28:31;53.65;;;27.48;;
56005;SDS011;41888;44.696;10.522;2022-11-14T10:34:26;49.75;;;26.33;;
56005;SDS011;41888;44.696;10.522;2022-11-14T10:37:19;45.03;;;25.88;;
56005;SDS011;41888;44.696;10.522;2022-11-14T10:39:59;52.05;;;27.15;;
56005;SDS011;41888;44.696;10.522;2022-11-14T10:45:49;41.00;;;24.85;;
56005;SDS011;41888;44.696;10.522;2022-11-14T10:48:30;43.70;;;23.67;;
56005;SDS011;41888;44.696;10.522;2022-11-14T10:51:05;40.38;;;22.40;;
56005;SDS011;41888;44.696;10.522;2022-11-14T10:56:29;40.47;;;24.05;;
56005;SDS011;41888;44.696;10.522;2022-11-14T10:58:56;41.15;;;22.48;;
56005;SDS011;41888;44.696;10.522;2022-11-14T11:06:42;37.67;;;21.02;;
56005;SDS011;41888;44.696;10.522;2022-11-14T11:09:12;39.30;;;23.33;;
56005;SDS011;41888;44.696;10.522;2022-11-14T11:12:05;37.33;;;22.08;;
56005;SDS011;41888;44.696;10.522;2022-11-14T11:14:32;42.72;;;23.52;;
56005;SDS011;41888;44.696;10.522;2022-11-14T11:19:39;44.22;;;25.08;;
56005;SDS011;41888;44.696;10.522;2022-11-14T11:24:59;36.42;;;22.38;;
56005;SDS011;41888;44.696;10.522;2022-11-14T11:27:26;37.72;;;21.45;;
56005;SDS011;41888;44.696;10.522;2022-11-14T11:32:32;32.67;;;20.27;;
56005;SDS011;41888;44.696;10.522;2022-11-14T11:34:59;31.77;;;19.25;;
56005;SDS011;41888;44.696;10.522;2022-11-14T11:37:32;34.45;;;21.17;;
56005;SDS011;41888;44.696;10.522;2022-11-14T11:40:19;35.83;;;22.45;;
56005;SDS011;41888;44.696;10.522;2022-11-14T11:45:32;35.08;;;21.92;;
56005;SDS011;41888;44.696;10.522;2022-11-14T11:48:03;38.55;;;22.33;;
56005;SDS011;41888;44.696;10.522;2022-11-14T11:50:37;37.13;;;21.80;;
56005;SDS011;41888;44.696;10.522;2022-11-14T11:53:11;35.92;;;21.00;;
56005;SDS011;41888;44.696;10.522;2022-11-14T11:55:49;35.28;;;21.80;;
56005;SDS011;41888;44.696;10.522;2022-11-14T12:01:15;36.92;;;22.13;;
56005;SDS011;41888;44.696;10.522;2022-11-14T12:03:51;34.28;;;21.58;;
56005;SDS011;41888;44.696;10.522;2022-11-14T12:06:19;36.13;;;23.92;;
56005;SDS011;41888;44.696;10.522;2022-11-14T12:11:35;32.20;;;20.13;;
56005;SDS011;41888;44.696;10.522;2022-11-14T12:32:35;30.40;;;19.02;;
56005;SDS011;41888;44.696;10.522;2022-11-14T12:35:31;33.15;;;19.00;;
56005;SDS011;41888;44.696;10.522;2022-11-14T12:38:00;33.25;;;19.10;;
56005;SDS011;41888;44.696;10.522;2022-11-14T12:42:57;35.05;;;20.05;;
56005;SDS011;41888;44.696;10.522;2022-11-14T12:48:13;33.13;;;19.52;;
56005;SDS011;41888;44.696;10.522;2022-11-14T12:50:49;32.78;;;19.55;;
56005;SDS011;41888;44.696;10.522;2022-11-14T12:53:50;32.20;;;19.88;;
56005;SDS011;41888;44.696;10.522;2022-11-14T12:59:10;32.15;;;19.23;;
56005;SDS011;41888;44.696;10.522;2022-11-14T13:15:56;29.33;;;19.57;;
56005;SDS011;41888;44.696;10.522;2022-11-14T13:18:56;30.52;;;18.65;;
56005;SDS011;41888;44.696;10.522;2022-11-14T13:27:27;30.55;;;19.58;;
56005;SDS011;41888;44.696;10.522;2022-11-14T13:29:53;30.10;;;19.05;;
56005;SDS011;41888;44.696;10.522;2022-11-14T13:43:49;28.58;;;16.75;;
56005;SDS011;41888;44.696;10.522;2022-11-14T13:46:25;28.67;;;17.00;;
56005;SDS011;41888;44.696;10.522;2022-11-14T13:51:45;30.73;;;18.00;;
56005;SDS011;41888;44.696;10.522;2022-11-14T13:54:15;27.73;;;16.67;;
56005;SDS011;41888;44.696;10.522;2022-11-14T13:56:56;30.70;;;17.30;;
56005;SDS011;41888;44.696;10.522;2022-11-14T13:59:40;28.55;;;16.60;;
56005;SDS011;41888;44.696;10.522;2022-11-14T14:02:20;30.52;;;18.15;;
56005;SDS011;41888;44.696;10.522;2022-11-14T14:05:10;30.35;;;17.30;;
56005;SDS011;41888;44.696;10.522;2022-11-14T14:13:36;30.63;;;18.73;;
56005;SDS011;41888;44.696;10.522;2022-11-14T14:19:27;31.73;;;18.80;;
56005;SDS011;41888;44.696;10.522;2022-11-14T14:22:31;32.35;;;19.38;;
56005;SDS011;41888;44.696;10.522;2022-11-14T14:28:32;31.48;;;18.10;;
56005;SDS011;41888;44.696;10.522;2022-11-14T14:31:23;33.30;;;20.08;;
56005;SDS011;41888;44.696;10.522;2022-11-14T14:33:57;33.17;;;19.05;;
56005;SDS011;41888;44.696;10.522;2022-11-14T14:36:24;33.90;;;20.52;;
56005;SDS011;41888;44.696;10.522;2022-11-14T14:39:10;33.50;;;19.52;;
56005;SDS011;41888;44.696;10.522;2022-11-14T14:41:36;35.70;;;19.75;;
56005;SDS011;41888;44.696;10.522;2022-11-14T14:44:03;29.95;;;18.80;;
56005;SDS011;41888;44.696;10.522;2022-11-14T14:46:31;32.33;;;19.05;;
56005;SDS011;41888;44.696;10.522;2022-11-14T14:48:58;31.73;;;18.50;;
56005;SDS011;41888;44.696;10.522;2022-11-14T14:51:31;34.08;;;18.85;;
56005;SDS011;41888;44.696;10.522;2022-11-14T14:53:58;35.30;;;19.52;;
56005;SDS011;41888;44.696;10.522;2022-11-14T14:56:25;32.22;;;19.23;;
56005;SDS011;41888;44.696;10.522;2022-11-14T14:58:52;34.58;;;19.98;;
56005;SDS011;41888;44.696;10.522;2022-11-14T15:01:32;34.40;;;20.15;;
56005;SDS011;41888;44.696;10.522;2022-11-14T15:04:04;36.05;;;20.08;;
56005;SDS011;41888;44.696;10.522;2022-11-14T15:06:38;35.25;;;20.40;;
56005;SDS011;41888;44.696;10.522;2022-11-14T15:11:42;37.67;;;23.00;;
56005;SDS011;41888;44.696;10.522;2022-11-14T15:14:20;39.90;;;23.23;;
56005;SDS011;41888;44.696;10.522;2022-11-14T15:16:48;37.58;;;21.80;;
56005;SDS011;41888;44.696;10.522;2022-11-14T15:19:17;41.50;;;22.80;;
56005;SDS011;41888;44.696;10.522;2022-11-14T15:22:03;38.30;;;22.05;;
56005;SDS011;41888;44.696;10.522;2022-11-14T15:25:14;35.00;;;20.88;;
56005;SDS011;41888;44.696;10.522;2022-11-14T15:27:47;34.97;;;20.93;;
56005;SDS011;41888;44.696;10.522;2022-11-14T15:30:35;44.00;;;23.02;;
56005;SDS011;41888;44.696;10.522;2022-11-14T15:33:03;44.40;;;22.98;;
56005;SDS011;41888;44.696;10.522;2022-11-14T15:36:02;39.95;;;22.25;;
56005;SDS011;41888;44.696;10.522;2022-11-14T15:38:31;40.58;;;20.35;;
56005;SDS011;41888;44.696;10.522;2022-11-14T15:41:17;38.28;;;21.67;;
56005;SDS011;41888;44.696;10.522;2022-11-14T15:43:48;34.33;;;19.50;;
56005;SDS011;41888;44.696;10.522;2022-11-14T15:49:08;39.30;;;21.45;;
56005;SDS011;41888;44.696;10.522;2022-11-14T15:54:28;38.15;;;20.85;;
56005;SDS011;41888;44.696;10.522;2022-11-14T15:57:14;40.50;;;19.75;;
56005;SDS011;41888;44.696;10.522;2022-11-14T15:59:41;39.53;;;21.92;;
56005;SDS011;41888;44.696;10.522;2022-11-14T16:02:13;37.33;;;20.70;;
56005;SDS011;41888;44.696;10.522;2022-11-14T16:04:43;40.60;;;21.35;;
56005;SDS011;41888;44.696;10.522;2022-11-14T16:07:13;43.65;;;21.42;;
56005;SDS011;41888;44.696;10.522;2022-11-14T16:09:40;41.90;;;22.27;;
56005;SDS011;41888;44.696;10.522;2022-11-14T16:12:07;38.63;;;21.75;;
56005;SDS011;41888;44.696;10.522;2022-11-14T16:14:33;45.72;;;22.67;;
56005;SDS011;41888;44.696;10.522;2022-11-14T16:16:59;52.35;;;23.70;;
56005;SDS011;41888;44.696;10.522;2022-11-14T16:19:26;45.40;;;23.38;;
56005;SDS011;41888;44.696;10.522;2022-11-14T16:21:52;46.95;;;24.23;;
56005;SDS011;41888;44.696;10.522;2022-11-14T16:24:19;41.53;;;22.17;;
56005;SDS011;41888;44.696;10.522;2022-11-14T16:26:47;41.20;;;20.88;;
56005;SDS011;41888;44.696;10.522;2022-11-14T16:29:13;48.20;;;23.45;;
56005;SDS011;41888;44.696;10.522;2022-11-14T16:31:40;42.65;;;23.90;;
56005;SDS011;41888;44.696;10.522;2022-11-14T16:34:08;46.58;;;24.52;;
56005;SDS011;41888;44.696;10.522;2022-11-14T16:36:45;50.25;;;26.40;;
56005;SDS011;41888;44.696;10.522;2022-11-14T16:39:12;48.83;;;24.40;;
56005;SDS011;41888;44.696;10.522;2022-11-14T16:41:39;47.13;;;23.95;;
56005;SDS011;41888;44.696;10.522;2022-11-14T16:44:07;54.65;;;25.63;;